sensor_id;sensor_type;location;lat;lon;timestamp;pressure;altitude;pressure_sealevel;temperature;humidity
6194;BME280;3130;41.564;23.280;2023-02-13T00:00:34;100593.56;;;1.94;77.22
6194;BME280;3130;41.564;23.280;2023-02-13T00:03:02;100354.16;;;0.64;76.90
6194;BME280;3130;41.564;23.280;2023-02-13T00:05:30;100478.03;;;1.39;76.98
6194;BME280;3130;41.564;23.280;2023-02-13T00:07:57;100717.59;;;2.67;77.43
6194;BME280;3130;41.564;23.280;2023-02-13T00:10:24;100501.59;;;1.29;78.10
6194;BME280;3130;41.564;23.280;2023-02-13T00:12:53;100719.31;;;2.51;77.88
6194;BME280;3130;41.564;23.280;2023-02-13T00:15:21;100665.25;;;2.03;78.77
6194;BME280;3130;41.564;23.280;2023-02-13T00:17:48;100500.72;;;1.12;78.43
6194;BME280;3130;41.564;23.280;2023-02-13T00:20:16;100588.44;;;1.58;78.64
6194;BME280;3130;41.564;23.280;2023-02-13T00:22:43;100495.66;;;1.06;78.38
6194;BME280;3130;41.564;23.280;2023-02-13T00:25:11;100580.84;;;1.61;78.07
6194;BME280;3130;41.564;23.280;2023-02-13T00:27:38;100354.84;;;0.23;78.55
6194;BME280;3130;41.564;23.280;2023-02-13T00:30:08;100581.69;;;1.57;78.61
6194;BME280;3130;41.564;23.280;2023-02-13T00:32:36;100624.72;;;1.90;78.39
6194;BME280;3130;41.564;23.280;2023-02-13T00:35:03;100682.13;;;2.23;78.09
6194;BME280;3130;41.564;23.280;2023-02-13T00:37:32;100655.97;;;2.02;77.84
6194;BME280;3130;41.564;23.280;2023-02-13T00:39:59;100508.34;;;1.33;77.56
6194;BME280;3130;41.564;23.280;2023-02-13T00:42:26;100714.22;;;2.65;78.37
6194;BME280;3130;41.564;23.280;2023-02-13T00:44:54;100732.81;;;2.80;77.68
6194;BME280;3130;41.564;23.280;2023-02-13T00:47:23;100731.97;;;2.89;77.54
6194;BME280;3130;41.564;23.280;2023-02-13T00:49:50;100599.47;;;2.13;77.33
6194;BME280;3130;41.564;23.280;2023-02-13T00:52:17;100507.56;;;1.82;76.77
6194;BME280;3130;41.564;23.280;2023-02-13T00:55:02;100753.91;;;3.15;76.33
6194;BME280;3130;41.564;23.280;2023-02-13T00:57:59;100625.63;;;2.53;76.50
6194;BME280;3130;41.564;23.280;2023-02-13T01:00:45;100649.25;;;2.58;76.20
6194;BME280;3130;41.564;23.280;2023-02-13T01:03:41;100530.31;;;1.67;76.76
6194;BME280;3130;41.564;23.280;2023-02-13T01:06:11;100725.22;;;2.83;76.83
6194;BME280;3130;41.564;23.280;2023-02-13T01:08:39;100542.97;;;1.67;77.38
6194;BME280;3130;41.564;23.280;2023-02-13T01:11:07;100733.66;;;2.96;77.21
6194;BME280;3130;41.564;23.280;2023-02-13T01:13:35;100526.94;;;1.72;77.36
6194;BME280;3130;41.564;23.280;2023-02-13T01:16:02;100703.25;;;2.82;77.40
6194;BME280;3130;41.564;23.280;2023-02-13T01:18:31;100614.66;;;2.36;77.04
6194;BME280;3130;41.564;23.280;2023-02-13T01:21:00;100701.56;;;2.90;76.69
6194;BME280;3130;41.564;23.280;2023-02-13T01:23:31;100740.38;;;3.23;76.70
6194;BME280;3130;41.564;23.280;2023-02-13T01:25:58;100661.91;;;2.86;76.45
6194;BME280;3130;41.564;23.280;2023-02-13T01:28:26;100736.97;;;3.36;76.43
6194;BME280;3130;41.564;23.280;2023-02-13T01:30:53;100742.88;;;3.41;75.95
6194;BME280;3130;41.564;23.280;2023-02-13T01:33:21;100747.94;;;3.38;75.49
6194;BME280;3130;41.564;23.280;2023-02-13T01:35:50;100742.03;;;3.42;76.01
6194;BME280;3130;41.564;23.280;2023-02-13T01:38:18;100764.00;;;3.40;75.75
6194;BME280;3130;41.564;23.280;2023-02-13T01:40:45;100752.19;;;3.41;75.96
6194;BME280;3130;41.564;23.280;2023-02-13T01:43:13;100725.19;;;3.10;76.13
6194;BME280;3130;41.564;23.280;2023-02-13T01:45:41;100440.16;;;1.37;75.86
6194;BME280;3130;41.564;23.280;2023-02-13T01:48:13;100764.91;;;3.02;77.61
6194;BME280;3130;41.564;23.280;2023-02-13T01:50:44;100753.91;;;2.97;77.58
6194;BME280;3130;41.564;23.280;2023-02-13T01:53:17;100762.38;;;2.87;77.57
6194;BME280;3130;41.564;23.280;2023-02-13T01:55:50;100747.16;;;2.93;78.49
6194;BME280;3130;41.564;23.280;2023-02-13T01:58:21;100542.94;;;1.85;78.36
6194;BME280;3130;41.564;23.280;2023-02-13T02:00:50;100752.22;;;3.08;77.66
6194;BME280;3130;41.564;23.280;2023-02-13T02:03:20;100748.84;;;3.15;77.61
6194;BME280;3130;41.564;23.280;2023-02-13T02:05:51;100721.00;;;2.96;76.56
6194;BME280;3130;41.564;23.280;2023-02-13T02:08:23;100756.47;;;3.13;77.20
6194;BME280;3130;41.564;23.280;2023-02-13T02:10:51;100650.94;;;2.44;77.23
6194;BME280;3130;41.564;23.280;2023-02-13T02:13:20;100693.97;;;2.86;76.91
6194;BME280;3130;41.564;23.280;2023-02-13T02:15:49;100661.91;;;2.62;76.64
6194;BME280;3130;41.564;23.280;2023-02-13T02:18:18;100747.97;;;3.17;76.70
6194;BME280;3130;41.564;23.280;2023-02-13T02:21:14;100475.53;;;1.60;76.98
6194;BME280;3130;41.564;23.280;2023-02-13T02:33:20;100714.22;;;2.99;76.23
6194;BME280;3130;41.564;23.280;2023-02-13T02:36:02;100758.97;;;3.25;76.83
6194;BME280;3130;41.564;23.280;2023-02-13T02:38:49;100764.88;;;3.14;76.90
6194;BME280;3130;41.564;23.280;2023-02-13T02:41:29;100770.78;;;3.17;76.95
6194;BME280;3130;41.564;23.280;2023-02-13T02:44:17;100772.50;;;3.12;76.90
6194;BME280;3130;41.564;23.280;2023-02-13T02:47:01;100768.25;;;3.10;76.94
6194;BME280;3130;41.564;23.280;2023-02-13T02:50:00;100761.50;;;2.97;77.38
6194;BME280;3130;41.564;23.280;2023-02-13T02:52:49;100744.66;;;2.80;77.17
6194;BME280;3130;41.564;23.280;2023-02-13T02:55:30;100759.00;;;3.00;76.09
6194;BME280;3130;41.564;23.280;2023-02-13T02:58:04;100787.69;;;3.06;76.98
6194;BME280;3130;41.564;23.280;2023-02-13T03:00:54;100778.41;;;2.94;77.36
6194;BME280;3130;41.564;23.280;2023-02-13T03:03:40;100570.78;;;1.74;77.41
6194;BME280;3130;41.564;23.280;2023-02-13T03:06:29;100793.63;;;3.08;77.34
6194;BME280;3130;41.564;23.280;2023-02-13T03:09:00;100768.28;;;2.86;77.11
6194;BME280;3130;41.564;23.280;2023-02-13T03:11:48;100734.50;;;2.59;77.48
6194;BME280;3130;41.564;23.280;2023-02-13T03:14:34;100813.03;;;3.03;77.06
6194;BME280;3130;41.564;23.280;2023-02-13T03:17:03;100811.34;;;3.08;76.59
6194;BME280;3130;41.564;23.280;2023-02-13T03:19:56;100784.31;;;2.90;76.00
6194;BME280;3130;41.564;23.280;2023-02-13T03:22:56;100815.59;;;3.05;76.84
6194;BME280;3130;41.564;23.280;2023-02-13T03:25:29;100824.84;;;3.04;76.05
6194;BME280;3130;41.564;23.280;2023-02-13T03:28:06;100747.16;;;2.59;76.02
6194;BME280;3130;41.564;23.280;2023-02-13T03:30:58;100782.63;;;2.74;76.52
6194;BME280;3130;41.564;23.280;2023-02-13T03:33:41;100802.03;;;2.79;76.46
6194;BME280;3130;41.564;23.280;2023-02-13T03:36:16;100679.53;;;1.82;76.26
6194;BME280;3130;41.564;23.280;2023-02-13T03:39:07;100830.75;;;2.78;76.46
6194;BME280;3130;41.564;23.280;2023-02-13T03:41:38;100791.03;;;2.56;76.60
6194;BME280;3130;41.564;23.280;2023-02-13T03:44:12;100844.28;;;2.83;76.56
6194;BME280;3130;41.564;23.280;2023-02-13T03:46:43;100787.59;;;2.35;76.44
6194;BME280;3130;41.564;23.280;2023-02-13T03:49:17;100834.03;;;2.49;77.61
6194;BME280;3130;41.564;23.280;2023-02-13T03:52:06;100845.00;;;2.46;77.91
6194;BME280;3130;41.564;23.280;2023-02-13T03:54:42;100835.72;;;2.47;77.79
6194;BME280;3130;41.564;23.280;2023-02-13T03:57:30;100823.91;;;2.40;77.36
6194;BME280;3130;41.564;23.280;2023-02-13T04:00:18;100841.66;;;2.64;77.97
6194;BME280;3130;41.564;23.280;2023-02-13T04:02:56;100851.00;;;2.72;78.05
6194;BME280;3130;41.564;23.280;2023-02-13T04:05:26;100847.63;;;2.75;77.31
6194;BME280;3130;41.564;23.280;2023-02-13T04:07:55;100802.00;;;2.45;77.11
6194;BME280;3130;41.564;23.280;2023-02-13T04:10:27;100785.09;;;2.36;77.06
6194;BME280;3130;41.564;23.280;2023-02-13T04:13:05;100804.53;;;2.57;77.73
6194;BME280;3130;41.564;23.280;2023-02-13T04:15:38;100840.06;;;2.81;77.84
6194;BME280;3130;41.564;23.280;2023-02-13T04:18:09;100808.78;;;2.65;77.42
6194;BME280;3130;41.564;23.280;2023-02-13T04:20:53;100838.34;;;2.72;78.14
6194;BME280;3130;41.564;23.280;2023-02-13T04:23:26;100483.63;;;0.47;77.38
6194;BME280;3130;41.564;23.280;2023-02-13T04:25:59;100824.78;;;2.61;77.58
6194;BME280;3130;41.564;23.280;2023-02-13T04:28:28;100669.31;;;1.61;77.68
6194;BME280;3130;41.564;23.280;2023-02-13T04:31:02;100844.22;;;2.61;78.05
6194;BME280;3130;41.564;23.280;2023-02-13T04:34:01;100488.69;;;0.50;77.82
6194;BME280;3130;41.564;23.280;2023-02-13T04:36:46;100644.81;;;1.40;78.04
6194;BME280;3130;41.564;23.280;2023-02-13T04:39:14;100860.25;;;2.64;77.40
6194;BME280;3130;41.564;23.280;2023-02-13T04:41:44;100863.66;;;2.66;77.38
6194;BME280;3130;41.564;23.280;2023-02-13T04:44:12;100732.59;;;1.80;77.39
6194;BME280;3130;41.564;23.280;2023-02-13T04:46:42;100729.19;;;1.74;77.62
6194;BME280;3130;41.564;23.280;2023-02-13T04:49:15;100642.22;;;1.22;77.78
6194;BME280;3130;41.564;23.280;2023-02-13T04:51:47;100872.00;;;2.44;77.34
6194;BME280;3130;41.564;23.280;2023-02-13T04:54:17;100516.41;;;0.47;77.65
6194;BME280;3130;41.564;23.280;2023-02-13T04:56:46;100721.59;;;1.66;77.63
6194;BME280;3130;41.564;23.280;2023-02-13T04:59:14;100770.53;;;1.85;77.52
6194;BME280;3130;41.564;23.280;2023-02-13T05:01:44;100675.91;;;1.21;78.36
6194;BME280;3130;41.564;23.280;2023-02-13T05:04:14;100644.47;;;0.78;78.28
6194;BME280;3130;41.564;23.280;2023-02-13T05:06:51;100538.94;;;0.21;78.30
6194;BME280;3130;41.564;23.280;2023-02-13T05:09:20;100786.28;;;1.36;79.03
6194;BME280;3130;41.564;23.280;2023-02-13T05:11:52;100914.03;;;2.12;78.98
6194;BME280;3130;41.564;23.280;2023-02-13T05:14:21;100650.13;;;0.48;78.95
6194;BME280;3130;41.564;23.280;2023-02-13T05:16:49;100902.22;;;2.10;79.67
6194;BME280;3130;41.564;23.280;2023-02-13T05:19:19;100519.28;;;-0.21;79.49
6194;BME280;3130;41.564;23.280;2023-02-13T05:21:46;100753.28;;;1.13;79.92
6194;BME280;3130;41.564;23.280;2023-02-13T05:24:39;100911.44;;;2.00;80.00
6194;BME280;3130;41.564;23.280;2023-02-13T05:27:08;100863.16;;;1.68;79.90
6194;BME280;3130;41.564;23.280;2023-02-13T05:29:40;100762.53;;;1.10;79.63
6194;BME280;3130;41.564;23.280;2023-02-13T05:32:11;100697.34;;;0.60;79.96
6194;BME280;3130;41.564;23.280;2023-02-13T05:34:41;100930.81;;;1.97;80.30
6194;BME280;3130;41.564;23.280;2023-02-13T05:37:13;100895.28;;;1.79;80.48
6194;BME280;3130;41.564;23.280;2023-02-13T05:43:09;100839.84;;;0.93;80.76
6194;BME280;3130;41.564;23.280;2023-02-13T05:46:06;100552.69;;;-1.14;82.13
6194;BME280;3130;41.564;23.280;2023-02-13T05:48:52;100536.44;;;-1.39;83.55
6194;BME280;3130;41.564;23.280;2023-02-13T05:51:50;100838.38;;;0.36;84.29
6194;BME280;3130;41.564;23.280;2023-02-13T05:54:24;100466.41;;;-1.71;84.68
6194;BME280;3130;41.564;23.280;2023-02-13T05:57:15;100924.13;;;1.02;84.55
6194;BME280;3130;41.564;23.280;2023-02-13T05:59:49;100854.03;;;0.81;84.44
6194;BME280;3130;41.564;23.280;2023-02-13T06:02:41;100557.84;;;-1.04;84.10
6194;BME280;3130;41.564;23.280;2023-02-13T06:05:23;100697.38;;;-0.20;84.08
6194;BME280;3130;41.564;23.280;2023-02-13T06:07:55;100917.44;;;1.10;84.15
6194;BME280;3130;41.564;23.280;2023-02-13T06:10:35;100759.13;;;0.14;84.82
6194;BME280;3130;41.564;23.280;2023-02-13T06:13:02;100781.94;;;0.25;84.53
6194;BME280;3130;41.564;23.280;2023-02-13T06:15:31;100881.88;;;0.88;84.54
6194;BME280;3130;41.564;23.280;2023-02-13T06:17:58;100923.28;;;1.06;83.95
6194;BME280;3130;41.564;23.280;2023-02-13T06:20:25;100835.97;;;0.46;84.70
6194;BME280;3130;41.564;23.280;2023-02-13T06:22:53;100530.69;;;-1.32;84.18
6194;BME280;3130;41.564;23.280;2023-02-13T06:25:20;100919.06;;;1.02;84.68
6194;BME280;3130;41.564;23.280;2023-02-13T06:27:47;100801.38;;;0.33;84.21
6194;BME280;3130;41.564;23.280;2023-02-13T06:30:15;100737.84;;;-0.10;84.69
6194;BME280;3130;41.564;23.280;2023-02-13T06:32:46;100899.59;;;0.91;84.11
6194;BME280;3130;41.564;23.280;2023-02-13T06:35:14;100703.28;;;-0.17;84.25
6194;BME280;3130;41.564;23.280;2023-02-13T06:37:42;100686.25;;;-0.37;84.38
6194;BME280;3130;41.564;23.280;2023-02-13T06:40:11;100935.09;;;1.06;83.97
6194;BME280;3130;41.564;23.280;2023-02-13T06:42:41;100535.13;;;-1.11;84.35
6194;BME280;3130;41.564;23.280;2023-02-13T06:45:09;100723.84;;;0.16;84.41
6194;BME280;3130;41.564;23.280;2023-02-13T06:47:40;100930.34;;;1.37;83.96
6194;BME280;3130;41.564;23.280;2023-02-13T06:50:11;100867.88;;;1.21;83.24
6194;BME280;3130;41.564;23.280;2023-02-13T06:52:39;100757.06;;;0.62;82.88
6194;BME280;3130;41.564;23.280;2023-02-13T06:55:06;100714.88;;;0.45;82.28
6194;BME280;3130;41.564;23.280;2023-02-13T06:57:34;100640.59;;;0.14;81.72
6194;BME280;3130;41.564;23.280;2023-02-13T07:00:01;100885.13;;;1.70;81.76
6194;BME280;3130;41.564;23.280;2023-02-13T07:02:30;100944.53;;;2.39;81.29
6194;BME280;3130;41.564;23.280;2023-02-13T07:04:58;100943.78;;;2.57;79.55
6194;BME280;3130;41.564;23.280;2023-02-13T07:07:26;100882.94;;;2.36;79.78
6194;BME280;3130;41.564;23.280;2023-02-13T07:09:53;100946.44;;;2.91;78.53
6194;BME280;3130;41.564;23.280;2023-02-13T07:12:21;100873.75;;;2.63;78.13
6194;BME280;3130;41.564;23.280;2023-02-13T07:14:48;100856.06;;;2.75;78.31
6194;BME280;3130;41.564;23.280;2023-02-13T07:17:15;100912.75;;;3.29;76.79
6194;BME280;3130;41.564;23.280;2023-02-13T07:19:42;100861.19;;;3.06;76.45
6194;BME280;3130;41.564;23.280;2023-02-13T07:22:10;100910.22;;;3.34;75.87
6194;BME280;3130;41.564;23.280;2023-02-13T07:24:39;100931.38;;;3.64;74.90
6194;BME280;3130;41.564;23.280;2023-02-13T07:27:08;100598.59;;;1.91;74.07
6194;BME280;3130;41.564;23.280;2023-02-13T07:29:35;100917.78;;;4.05;73.26
6194;BME280;3130;41.564;23.280;2023-02-13T07:32:03;100874.63;;;4.02;72.81
6194;BME280;3130;41.564;23.280;2023-02-13T07:34:31;100629.81;;;2.85;71.67
6194;BME280;3130;41.564;23.280;2023-02-13T07:36:59;100823.53;;;4.74;71.39
6194;BME280;3130;41.564;23.280;2023-02-13T07:39:26;100874.38;;;5.85;68.34
6194;BME280;3130;41.564;23.280;2023-02-13T07:41:58;100928.34;;;6.92;64.65
6194;BME280;3130;41.564;23.280;2023-02-13T07:44:25;100912.03;;;7.56;61.85
6194;BME280;3130;41.564;23.280;2023-02-13T07:46:53;100642.97;;;6.79;58.04
6194;BME280;3130;41.564;23.280;2023-02-13T07:49:20;100927.75;;;9.15;53.85
6194;BME280;3130;41.564;23.280;2023-02-13T07:51:47;100680.03;;;8.24;51.94
6194;BME280;3130;41.564;23.280;2023-02-13T07:54:14;100909.34;;;10.04;49.17
6194;BME280;3130;41.564;23.280;2023-02-13T07:56:42;100924.09;;;10.87;47.94
6194;BME280;3130;41.564;23.280;2023-02-13T07:59:11;100928.06;;;11.52;45.51
6194;BME280;3130;41.564;23.280;2023-02-13T08:01:39;100926.44;;;12.03;42.67
6194;BME280;3130;41.564;23.280;2023-02-13T08:04:06;100911.44;;;12.38;42.34
6194;BME280;3130;41.564;23.280;2023-02-13T08:06:33;100926.53;;;12.94;40.77
6194;BME280;3130;41.564;23.280;2023-02-13T08:09:01;100922.03;;;13.22;38.76
6194;BME280;3130;41.564;23.280;2023-02-13T08:11:46;100898.09;;;13.18;39.00
6194;BME280;3130;41.564;23.280;2023-02-13T08:14:21;100818.16;;;12.77;38.70
6194;BME280;3130;41.564;23.280;2023-02-13T08:16:48;100938.34;;;13.44;38.23
6194;BME280;3130;41.564;23.280;2023-02-13T08:19:15;100706.31;;;12.20;37.47
6194;BME280;3130;41.564;23.280;2023-02-13T08:21:43;100924.41;;;13.26;38.30
6194;BME280;3130;41.564;23.280;2023-02-13T08:24:10;100891.84;;;13.03;38.32
6194;BME280;3130;41.564;23.280;2023-02-13T08:26:38;100907.03;;;13.10;38.67
6194;BME280;3130;41.564;23.280;2023-02-13T08:29:06;100757.75;;;12.20;38.44
6194;BME280;3130;41.564;23.280;2023-02-13T08:31:35;100901.16;;;13.07;38.06
6194;BME280;3130;41.564;23.280;2023-02-13T08:34:02;100918.88;;;12.93;38.26
6194;BME280;3130;41.564;23.280;2023-02-13T08:36:29;100873.47;;;12.67;38.85
6194;BME280;3130;41.564;23.280;2023-02-13T08:38:57;100845.38;;;12.61;37.81
6194;BME280;3130;41.564;23.280;2023-02-13T08:41:24;100913.00;;;12.88;38.82
6194;BME280;3130;41.564;23.280;2023-02-13T08:43:53;100912.19;;;12.87;38.97
6194;BME280;3130;41.564;23.280;2023-02-13T08:46:20;100910.94;;;12.74;39.64
6194;BME280;3130;41.564;23.280;2023-02-13T08:48:49;100908.06;;;12.37;39.77
6194;BME280;3130;41.564;23.280;2023-02-13T08:51:16;100894.72;;;12.02;40.45
6194;BME280;3130;41.564;23.280;2023-02-13T08:53:43;100877.56;;;11.51;41.14
6194;BME280;3130;41.564;23.280;2023-02-13T08:56:10;100854.19;;;10.52;43.51
6194;BME280;3130;41.564;23.280;2023-02-13T08:58:38;100680.63;;;9.03;44.55
6194;BME280;3130;41.564;23.280;2023-02-13T09:01:05;100826.50;;;9.70;45.42
6194;BME280;3130;41.564;23.280;2023-02-13T09:03:33;100785.19;;;9.50;45.91
6194;BME280;3130;41.564;23.280;2023-02-13T09:06:03;100876.59;;;9.82;45.93
6194;BME280;3130;41.564;23.280;2023-02-13T09:08:30;100908.53;;;10.03;45.90
6194;BME280;3130;41.564;23.280;2023-02-13T09:10:59;100900.34;;;9.88;46.64
6194;BME280;3130;41.564;23.280;2023-02-13T09:13:28;100862.03;;;9.50;47.56
6194;BME280;3130;41.564;23.280;2023-02-13T09:15:58;100844.16;;;9.14;48.93
6194;BME280;3130;41.564;23.280;2023-02-13T09:18:26;100762.31;;;8.76;48.94
6194;BME280;3130;41.564;23.280;2023-02-13T09:20:58;100807.31;;;9.21;48.44
6194;BME280;3130;41.564;23.280;2023-02-13T09:23:29;100883.41;;;9.83;48.06
6194;BME280;3130;41.564;23.280;2023-02-13T09:25:58;100718.41;;;8.59;47.23
6194;BME280;3130;41.564;23.280;2023-02-13T09:28:26;100888.53;;;8.34;50.46
6194;BME280;3130;41.564;23.280;2023-02-13T09:30:54;100869.16;;;7.76;52.52
6194;BME280;3130;41.564;23.280;2023-02-13T09:33:21;100823.88;;;7.39;54.35
6194;BME280;3130;41.564;23.280;2023-02-13T09:35:48;100876.53;;;7.91;53.92
6194;BME280;3130;41.564;23.280;2023-02-13T09:38:15;100743.53;;;7.58;53.25
6194;BME280;3130;41.564;23.280;2023-02-13T09:40:48;100883.75;;;8.60;52.81
6194;BME280;3130;41.564;23.280;2023-02-13T09:43:21;100746.63;;;8.17;51.43
6194;BME280;3130;41.564;23.280;2023-02-13T09:45:55;100697.19;;;7.77;51.33
6194;BME280;3130;41.564;23.280;2023-02-13T09:48:28;100547.97;;;7.11;51.41
6194;BME280;3130;41.564;23.280;2023-02-13T09:50:56;100572.06;;;7.39;49.63
6194;BME280;3130;41.564;23.280;2023-02-13T09:53:26;100692.06;;;8.19;49.54
6194;BME280;3130;41.564;23.280;2023-02-13T09:56:08;100720.63;;;8.38;49.00
6194;BME280;3130;41.564;23.280;2023-02-13T09:58:42;100857.56;;;9.23;49.28
6194;BME280;3130;41.564;23.280;2023-02-13T10:01:23;100798.28;;;9.06;48.92
6194;BME280;3130;41.564;23.280;2023-02-13T10:04:10;100551.06;;;7.66;48.59
6194;BME280;3130;41.564;23.280;2023-02-13T10:06:43;100636.28;;;8.36;48.44
6194;BME280;3130;41.564;23.280;2023-02-13T10:09:21;100710.50;;;9.03;47.68
6194;BME280;3130;41.564;23.280;2023-02-13T10:12:11;100792.59;;;9.62;47.44
6194;BME280;3130;41.564;23.280;2023-02-13T10:14:46;100645.97;;;8.92;46.93
6194;BME280;3130;41.564;23.280;2023-02-13T10:17:20;100788.59;;;9.83;46.34
6194;BME280;3130;41.564;23.280;2023-02-13T10:19:53;100621.91;;;8.99;45.90
6194;BME280;3130;41.564;23.280;2023-02-13T10:22:27;100813.13;;;10.23;45.53
6194;BME280;3130;41.564;23.280;2023-02-13T10:24:58;100787.75;;;10.14;45.16
6194;BME280;3130;41.564;23.280;2023-02-13T10:27:34;100799.28;;;9.98;45.35
6194;BME280;3130;41.564;23.280;2023-02-13T10:30:05;100804.91;;;10.12;45.66
6194;BME280;3130;41.564;23.280;2023-02-13T10:32:49;100798.00;;;10.14;45.42
6194;BME280;3130;41.564;23.280;2023-02-13T10:35:36;100789.34;;;10.18;44.91
6194;BME280;3130;41.564;23.280;2023-02-13T10:38:15;100788.91;;;10.33;44.85
6194;BME280;3130;41.564;23.280;2023-02-13T10:41:20;100500.13;;;8.62;44.24
6194;BME280;3130;41.564;23.280;2023-02-13T10:47:31;100471.19;;;8.61;44.10
6194;BME280;3130;41.564;23.280;2023-02-13T10:50:42;100451.81;;;8.83;43.33
6194;BME280;3130;41.564;23.280;2023-02-13T10:53:47;100400.53;;;8.59;42.24
6194;BME280;3130;41.564;23.280;2023-02-13T10:56:26;100456.78;;;8.88;42.12
6194;BME280;3130;41.564;23.280;2023-02-13T11:02:30;100705.19;;;10.03;42.23
6194;BME280;3130;41.564;23.280;2023-02-13T11:05:54;100426.09;;;8.27;41.76
6194;BME280;3130;41.564;23.280;2023-02-13T11:12:30;100613.03;;;9.12;43.04
6194;BME280;3130;41.564;23.280;2023-02-13T11:26:00;100463.47;;;8.63;41.16
6194;BME280;3130;41.564;23.280;2023-02-13T11:35:47;100505.72;;;9.88;40.09
6194;BME280;3130;41.564;23.280;2023-02-13T11:38:51;100683.19;;;11.27;39.15
6194;BME280;3130;41.564;23.280;2023-02-13T11:49:46;100678.44;;;11.87;37.42
6194;BME280;3130;41.564;23.280;2023-02-13T12:15:15;100611.09;;;12.00;36.72
6194;BME280;3130;41.564;23.280;2023-02-13T12:21:39;100303.84;;;10.66;36.29
6194;BME280;3130;41.564;23.280;2023-02-13T12:25:10;100619.88;;;12.37;36.74
6194;BME280;3130;41.564;23.280;2023-02-13T12:28:31;100303.81;;;10.89;35.75
6194;BME280;3130;41.564;23.280;2023-02-13T12:31:52;100271.25;;;10.70;34.91
6194;BME280;3130;41.564;23.280;2023-02-13T12:38:38;100596.38;;;12.66;35.40
6194;BME280;3130;41.564;23.280;2023-02-13T12:48:20;100436.91;;;12.05;34.62
6194;BME280;3130;41.564;23.280;2023-02-13T12:51:55;100268.63;;;11.12;34.72
6194;BME280;3130;41.564;23.280;2023-02-13T13:03:01;100557.16;;;13.38;33.98
6194;BME280;3130;41.564;23.280;2023-02-13T13:12:39;100541.41;;;13.62;31.84
6194;BME280;3130;41.564;23.280;2023-02-13T13:29:36;100174.50;;;11.71;30.72
6194;BME280;3130;41.564;23.280;2023-02-13T13:32:45;100394.66;;;13.06;31.35
6194;BME280;3130;41.564;23.280;2023-02-13T13:35:23;100214.03;;;12.05;31.39
6194;BME280;3130;41.564;23.280;2023-02-13T13:37:55;100339.94;;;12.82;31.73
6194;BME280;3130;41.564;23.280;2023-02-13T13:40:50;100219.19;;;12.05;31.26
6194;BME280;3130;41.564;23.280;2023-02-13T13:43:47;100295.91;;;12.33;31.51
6194;BME280;3130;41.564;23.280;2023-02-13T13:46:34;100198.41;;;11.73;31.32
6194;BME280;3130;41.564;23.280;2023-02-13T13:49:26;100499.63;;;13.37;31.15
6194;BME280;3130;41.564;23.280;2023-02-13T14:05:26;100479.44;;;12.92;31.51
6194;BME280;3130;41.564;23.280;2023-02-13T15:22:41;100161.91;;;9.79;33.11
6194;BME280;3130;41.564;23.280;2023-02-13T15:25:34;100455.16;;;11.58;33.68
6194;BME280;3130;41.564;23.280;2023-02-13T15:28:05;100247.72;;;10.14;33.80
6194;BME280;3130;41.564;23.280;2023-02-13T15:30:34;100455.31;;;11.32;33.79
6194;BME280;3130;41.564;23.280;2023-02-13T15:33:13;100477.25;;;11.17;33.99
6194;BME280;3130;41.564;23.280;2023-02-13T15:35:42;100305.59;;;9.97;34.32
6194;BME280;3130;41.564;23.280;2023-02-13T15:38:24;100158.59;;;9.05;34.77
6194;BME280;3130;41.564;23.280;2023-02-13T15:41:49;100146.34;;;8.90;35.02
6194;BME280;3130;41.564;23.280;2023-02-13T15:51:35;100277.25;;;9.02;36.02
6194;BME280;3130;41.564;23.280;2023-02-13T15:57:37;100414.41;;;9.61;36.21
6194;BME280;3130;41.564;23.280;2023-02-13T16:13:26;100346.03;;;8.57;38.16
6194;BME280;3130;41.564;23.280;2023-02-13T16:23:12;100307.03;;;7.90;39.08
6194;BME280;3130;41.564;23.280;2023-02-13T16:26:06;100363.28;;;8.20;39.41
6194;BME280;3130;41.564;23.280;2023-02-13T16:28:54;100502.47;;;9.01;39.60
6194;BME280;3130;41.564;23.280;2023-02-13T16:31:22;100274.06;;;7.50;40.78
6194;BME280;3130;41.564;23.280;2023-02-13T16:34:29;100184.22;;;6.74;41.38
6194;BME280;3130;41.564;23.280;2023-02-13T16:41:02;100512.19;;;7.90;43.40
6194;BME280;3130;41.564;23.280;2023-02-13T16:44:01;100342.28;;;6.33;44.29
6194;BME280;3130;41.564;23.280;2023-02-13T16:46:51;100367.81;;;5.87;45.47
6194;BME280;3130;41.564;23.280;2023-02-13T16:49:36;100514.13;;;6.63;45.94
6194;BME280;3130;41.564;23.280;2023-02-13T16:52:37;100529.34;;;6.64;46.55
6194;BME280;3130;41.564;23.280;2023-02-13T16:55:21;100153.34;;;4.41;46.69
6194;BME280;3130;41.564;23.280;2023-02-13T16:58:11;100358.06;;;5.60;46.61
6194;BME280;3130;41.564;23.280;2023-02-13T17:01:22;100198.75;;;4.58;47.23
6194;BME280;3130;41.564;23.280;2023-02-13T17:04:17;100337.25;;;5.38;47.56
6194;BME280;3130;41.564;23.280;2023-02-13T17:06:58;100290.47;;;4.95;48.17
6194;BME280;3130;41.564;23.280;2023-02-13T17:09:50;100509.28;;;5.99;49.19
6194;BME280;3130;41.564;23.280;2023-02-13T17:12:35;100359.84;;;5.03;48.93
6194;BME280;3130;41.564;23.280;2023-02-13T17:15:51;100431.31;;;5.41;49.85
6194;BME280;3130;41.564;23.280;2023-02-13T17:19:01;100298.63;;;4.61;49.15
6194;BME280;3130;41.564;23.280;2023-02-13T17:24:40;100336.63;;;4.69;50.02
6194;BME280;3130;41.564;23.280;2023-02-13T17:27:14;100400.63;;;4.96;50.96
6194;BME280;3130;41.564;23.280;2023-02-13T17:29:45;100105.88;;;3.29;50.94
6194;BME280;3130;41.564;23.280;2023-02-13T17:32:20;100339.47;;;4.45;51.28
6194;BME280;3130;41.564;23.280;2023-02-13T17:34:50;100504.25;;;5.38;51.18
6194;BME280;3130;41.564;23.280;2023-02-13T17:40:00;100501.78;;;5.33;52.06
6194;BME280;3130;41.564;23.280;2023-02-13T17:42:51;100535.91;;;5.17;53.21
6194;BME280;3130;41.564;23.280;2023-02-13T17:45:23;100397.06;;;4.43;52.55
6194;BME280;3130;41.564;23.280;2023-02-13T17:47:56;100383.63;;;4.33;53.49
6194;BME280;3130;41.564;23.280;2023-02-13T17:50:46;100252.50;;;3.63;53.36
6194;BME280;3130;41.564;23.280;2023-02-13T17:53:21;100359.16;;;4.28;53.15
6194;BME280;3130;41.564;23.280;2023-02-13T17:55:50;100502.59;;;5.35;53.54
6194;BME280;3130;41.564;23.280;2023-02-13T17:58:17;100433.66;;;4.96;53.54
6194;BME280;3130;41.564;23.280;2023-02-13T18:00:45;100345.75;;;4.18;54.18